sensor_id;sensor_type;location;lat;lon;timestamp;P1;durP1;ratioP1;P2;durP2;ratioP2
44204;SDS011;30163;42.698;23.344;2023-05-10T00:00:52;9.98;;;6.47;;
44204;SDS011;30163;42.698;23.344;2023-05-10T00:03:17;9.60;;;5.45;;
44204;SDS011;30163;42.698;23.344;2023-05-10T00:05:43;10.35;;;6.00;;
44204;SDS011;30163;42.698;23.344;2023-05-10T00:08:09;13.20;;;7.57;;
44204;SDS011;30163;42.698;23.344;2023-05-10T00:10:34;13.93;;;8.23;;
44204;SDS011;30163;42.698;23.344;2023-05-10T00:13:01;16.73;;;8.77;;
44204;SDS011;30163;42.698;23.344;2023-05-10T00:15:26;17.83;;;10.13;;
44204;SDS011;30163;42.698;23.344;2023-05-10T00:17:52;20.20;;;10.82;;
44204;SDS011;30163;42.698;23.344;2023-05-10T00:20:18;14.07;;;9.43;;
44204;SDS011;30163;42.698;23.344;2023-05-10T00:22:43;17.15;;;9.88;;
44204;SDS011;30163;42.698;23.344;2023-05-10T00:25:09;16.77;;;9.65;;
44204;SDS011;30163;42.698;23.344;2023-05-10T00:27:35;22.48;;;10.25;;
44204;SDS011;30163;42.698;23.344;2023-05-10T00:30:03;19.67;;;10.35;;
44204;SDS011;30163;42.698;23.344;2023-05-10T00:32:29;15.80;;;8.93;;
44204;SDS011;30163;42.698;23.344;2023-05-10T00:34:55;23.10;;;10.98;;
44204;SDS011;30163;42.698;23.344;2023-05-10T00:37:21;18.55;;;9.90;;
44204;SDS011;30163;42.698;23.344;2023-05-10T00:39:46;20.70;;;10.30;;
44204;SDS011;30163;42.698;23.344;2023-05-10T00:42:12;16.23;;;9.48;;
44204;SDS011;30163;42.698;23.344;2023-05-10T00:44:37;17.27;;;9.77;;
44204;SDS011;30163;42.698;23.344;2023-05-10T00:47:05;18.25;;;10.82;;
44204;SDS011;30163;42.698;23.344;2023-05-10T00:49:31;19.95;;;9.73;;
44204;SDS011;30163;42.698;23.344;2023-05-10T00:51:56;18.17;;;11.23;;
44204;SDS011;30163;42.698;23.344;2023-05-10T00:54:22;22.58;;;11.13;;
44204;SDS011;30163;42.698;23.344;2023-05-10T00:56:48;16.90;;;9.65;;
44204;SDS011;30163;42.698;23.344;2023-05-10T00:59:15;18.10;;;10.50;;
44204;SDS011;30163;42.698;23.344;2023-05-10T01:01:42;20.23;;;11.23;;
44204;SDS011;30163;42.698;23.344;2023-05-10T01:04:08;17.70;;;9.95;;
44204;SDS011;30163;42.698;23.344;2023-05-10T01:06:35;18.80;;;10.90;;
44204;SDS011;30163;42.698;23.344;2023-05-10T01:09:00;18.10;;;10.98;;
44204;SDS011;30163;42.698;23.344;2023-05-10T01:11:26;17.05;;;10.20;;
44204;SDS011;30163;42.698;23.344;2023-05-10T01:13:53;16.45;;;9.77;;
44204;SDS011;30163;42.698;23.344;2023-05-10T01:16:21;20.08;;;9.32;;
44204;SDS011;30163;42.698;23.344;2023-05-10T01:18:47;17.27;;;9.90;;
44204;SDS011;30163;42.698;23.344;2023-05-10T01:29:33;16.35;;;10.18;;
44204;SDS011;30163;42.698;23.344;2023-05-10T01:32:22;14.40;;;9.10;;
44204;SDS011;30163;42.698;23.344;2023-05-10T01:38:09;18.10;;;9.45;;
44204;SDS011;30163;42.698;23.344;2023-05-10T01:40:24;20.70;;;8.95;;
44204;SDS011;30163;42.698;23.344;2023-05-10T01:42:54;13.27;;;7.38;;
44204;SDS011;30163;42.698;23.344;2023-05-10T01:45:30;13.77;;;8.27;;
44204;SDS011;30163;42.698;23.344;2023-05-10T01:48:08;12.50;;;7.97;;
44204;SDS011;30163;42.698;23.344;2023-05-10T01:50:35;12.25;;;8.13;;
44204;SDS011;30163;42.698;23.344;2023-05-10T01:53:03;11.45;;;7.38;;
44204;SDS011;30163;42.698;23.344;2023-05-10T01:55:33;11.85;;;6.60;;
44204;SDS011;30163;42.698;23.344;2023-05-10T01:58:05;12.02;;;6.97;;
44204;SDS011;30163;42.698;23.344;2023-05-10T02:00:33;14.27;;;7.35;;
44204;SDS011;30163;42.698;23.344;2023-05-10T02:03:00;12.35;;;7.55;;
44204;SDS011;30163;42.698;23.344;2023-05-10T02:05:29;14.02;;;7.20;;
44204;SDS011;30163;42.698;23.344;2023-05-10T02:07:56;12.02;;;7.20;;
44204;SDS011;30163;42.698;23.344;2023-05-10T02:10:23;11.80;;;7.43;;
44204;SDS011;30163;42.698;23.344;2023-05-10T02:12:49;12.73;;;7.93;;
44204;SDS011;30163;42.698;23.344;2023-05-10T02:15:17;12.68;;;7.70;;
44204;SDS011;30163;42.698;23.344;2023-05-10T02:17:46;10.75;;;6.63;;
44204;SDS011;30163;42.698;23.344;2023-05-10T02:20:12;10.05;;;7.32;;
44204;SDS011;30163;42.698;23.344;2023-05-10T02:22:37;9.02;;;5.32;;
44204;SDS011;30163;42.698;23.344;2023-05-10T02:25:04;13.65;;;7.90;;
44204;SDS011;30163;42.698;23.344;2023-05-10T02:27:31;12.95;;;8.32;;
44204;SDS011;30163;42.698;23.344;2023-05-10T02:29:57;11.85;;;7.25;;
44204;SDS011;30163;42.698;23.344;2023-05-10T02:32:24;13.48;;;8.20;;
44204;SDS011;30163;42.698;23.344;2023-05-10T02:34:50;10.20;;;7.28;;
44204;SDS011;30163;42.698;23.344;2023-05-10T02:37:18;12.73;;;7.70;;
44204;SDS011;30163;42.698;23.344;2023-05-10T02:39:45;11.73;;;7.38;;
44204;SDS011;30163;42.698;23.344;2023-05-10T02:42:13;10.77;;;7.00;;
44204;SDS011;30163;42.698;23.344;2023-05-10T02:44:42;11.20;;;7.22;;
44204;SDS011;30163;42.698;23.344;2023-05-10T02:47:08;12.50;;;7.25;;
44204;SDS011;30163;42.698;23.344;2023-05-10T02:49:34;12.45;;;6.50;;
44204;SDS011;30163;42.698;23.344;2023-05-10T02:52:00;11.90;;;6.53;;
44204;SDS011;30163;42.698;23.344;2023-05-10T02:54:30;12.40;;;6.43;;
44204;SDS011;30163;42.698;23.344;2023-05-10T02:56:58;13.30;;;6.55;;
44204;SDS011;30163;42.698;23.344;2023-05-10T02:59:27;15.20;;;6.43;;
44204;SDS011;30163;42.698;23.344;2023-05-10T03:01:53;9.75;;;6.22;;
44204;SDS011;30163;42.698;23.344;2023-05-10T03:04:19;9.68;;;5.80;;
44204;SDS011;30163;42.698;23.344;2023-05-10T03:06:44;7.55;;;5.45;;
44204;SDS011;30163;42.698;23.344;2023-05-10T03:09:10;11.70;;;6.03;;
44204;SDS011;30163;42.698;23.344;2023-05-10T03:14:59;9.48;;;5.65;;
44204;SDS011;30163;42.698;23.344;2023-05-10T03:17:30;8.10;;;5.22;;
44204;SDS011;30163;42.698;23.344;2023-05-10T03:20:03;10.65;;;6.65;;
44204;SDS011;30163;42.698;23.344;2023-05-10T03:22:49;10.00;;;6.47;;
44204;SDS011;30163;42.698;23.344;2023-05-10T03:25:17;9.05;;;5.85;;
44204;SDS011;30163;42.698;23.344;2023-05-10T03:27:43;11.35;;;6.38;;
44204;SDS011;30163;42.698;23.344;2023-05-10T03:30:11;9.73;;;6.22;;
44204;SDS011;30163;42.698;23.344;2023-05-10T03:32:37;11.73;;;6.07;;
44204;SDS011;30163;42.698;23.344;2023-05-10T03:35:07;10.27;;;6.30;;
44204;SDS011;30163;42.698;23.344;2023-05-10T03:37:33;9.85;;;5.57;;
44204;SDS011;30163;42.698;23.344;2023-05-10T03:39:59;9.40;;;6.25;;
44204;SDS011;30163;42.698;23.344;2023-05-10T03:42:25;13.20;;;7.00;;
44204;SDS011;30163;42.698;23.344;2023-05-10T03:44:51;13.50;;;7.18;;
44204;SDS011;30163;42.698;23.344;2023-05-10T03:47:16;12.90;;;6.43;;
44204;SDS011;30163;42.698;23.344;2023-05-10T03:49:42;15.98;;;7.30;;
44204;SDS011;30163;42.698;23.344;2023-05-10T03:52:08;9.95;;;6.43;;
44204;SDS011;30163;42.698;23.344;2023-05-10T03:54:36;15.13;;;7.20;;
44204;SDS011;30163;42.698;23.344;2023-05-10T03:57:01;12.55;;;7.35;;
44204;SDS011;30163;42.698;23.344;2023-05-10T03:59:29;11.88;;;7.07;;
44204;SDS011;30163;42.698;23.344;2023-05-10T04:01:55;14.75;;;7.18;;
44204;SDS011;30163;42.698;23.344;2023-05-10T04:04:21;11.50;;;6.65;;
44204;SDS011;30163;42.698;23.344;2023-05-10T04:06:48;16.00;;;6.80;;
44204;SDS011;30163;42.698;23.344;2023-05-10T04:09:13;11.45;;;6.63;;
44204;SDS011;30163;42.698;23.344;2023-05-10T04:11:39;11.35;;;6.28;;
44204;SDS011;30163;42.698;23.344;2023-05-10T04:14:05;13.05;;;6.20;;
44204;SDS011;30163;42.698;23.344;2023-05-10T04:16:32;9.32;;;5.57;;
44204;SDS011;30163;42.698;23.344;2023-05-10T04:18:58;15.50;;;6.10;;
44204;SDS011;30163;42.698;23.344;2023-05-10T04:21:24;9.75;;;5.43;;
44204;SDS011;30163;42.698;23.344;2023-05-10T04:23:52;9.48;;;5.45;;
44204;SDS011;30163;42.698;23.344;2023-05-10T04:26:23;9.70;;;5.47;;
44204;SDS011;30163;42.698;23.344;2023-05-10T04:28:50;10.73;;;6.45;;
44204;SDS011;30163;42.698;23.344;2023-05-10T04:31:18;9.68;;;5.95;;
44204;SDS011;30163;42.698;23.344;2023-05-10T04:33:44;11.50;;;6.20;;
44204;SDS011;30163;42.698;23.344;2023-05-10T04:36:09;7.88;;;5.18;;
44204;SDS011;30163;42.698;23.344;2023-05-10T04:38:35;9.35;;;5.93;;
44204;SDS011;30163;42.698;23.344;2023-05-10T04:41:04;15.23;;;6.50;;
44204;SDS011;30163;42.698;23.344;2023-05-10T04:43:36;9.90;;;6.22;;
44204;SDS011;30163;42.698;23.344;2023-05-10T04:46:04;10.88;;;6.45;;
44204;SDS011;30163;42.698;23.344;2023-05-10T04:48:30;15.50;;;6.43;;
44204;SDS011;30163;42.698;23.344;2023-05-10T04:51:01;11.25;;;7.03;;
44204;SDS011;30163;42.698;23.344;2023-05-10T04:53:33;22.65;;;7.07;;
44204;SDS011;30163;42.698;23.344;2023-05-10T04:55:59;12.00;;;6.65;;
44204;SDS011;30163;42.698;23.344;2023-05-10T04:58:25;12.18;;;5.93;;
44204;SDS011;30163;42.698;23.344;2023-05-10T05:00:53;10.73;;;7.15;;
44204;SDS011;30163;42.698;23.344;2023-05-10T05:03:19;20.33;;;7.85;;
44204;SDS011;30163;42.698;23.344;2023-05-10T05:05:48;15.32;;;7.57;;
44204;SDS011;30163;42.698;23.344;2023-05-10T05:08:18;12.98;;;7.35;;
44204;SDS011;30163;42.698;23.344;2023-05-10T05:10:43;13.50;;;7.50;;
44204;SDS011;30163;42.698;23.344;2023-05-10T05:13:12;13.63;;;6.85;;
44204;SDS011;30163;42.698;23.344;2023-05-10T05:15:40;12.20;;;7.30;;
44204;SDS011;30163;42.698;23.344;2023-05-10T05:18:11;17.05;;;7.28;;
44204;SDS011;30163;42.698;23.344;2023-05-10T05:20:39;13.07;;;7.00;;
44204;SDS011;30163;42.698;23.344;2023-05-10T05:23:05;12.18;;;7.18;;
44204;SDS011;30163;42.698;23.344;2023-05-10T05:25:35;20.73;;;6.88;;
44204;SDS011;30163;42.698;23.344;2023-05-10T05:28:07;13.90;;;7.32;;
44204;SDS011;30163;42.698;23.344;2023-05-10T05:30:34;16.35;;;7.55;;
44204;SDS011;30163;42.698;23.344;2023-05-10T05:33:00;14.07;;;7.82;;
44204;SDS011;30163;42.698;23.344;2023-05-10T05:35:31;10.15;;;6.28;;
44204;SDS011;30163;42.698;23.344;2023-05-10T05:37:59;13.10;;;7.43;;
44204;SDS011;30163;42.698;23.344;2023-05-10T05:40:28;9.10;;;6.65;;
44204;SDS011;30163;42.698;23.344;2023-05-10T05:42:54;14.07;;;7.18;;
44204;SDS011;30163;42.698;23.344;2023-05-10T05:45:22;16.77;;;8.80;;
44204;SDS011;30163;42.698;23.344;2023-05-10T05:47:50;17.33;;;7.65;;
44204;SDS011;30163;42.698;23.344;2023-05-10T05:50:18;11.00;;;6.80;;
44204;SDS011;30163;42.698;23.344;2023-05-10T05:52:49;17.25;;;7.45;;
44204;SDS011;30163;42.698;23.344;2023-05-10T05:55:15;13.52;;;8.32;;
44204;SDS011;30163;42.698;23.344;2023-05-10T05:57:42;11.70;;;7.57;;
44204;SDS011;30163;42.698;23.344;2023-05-10T06:00:11;11.52;;;6.57;;
44204;SDS011;30163;42.698;23.344;2023-05-10T06:02:42;12.27;;;7.13;;
44204;SDS011;30163;42.698;23.344;2023-05-10T06:05:11;12.65;;;7.97;;
44204;SDS011;30163;42.698;23.344;2023-05-10T06:07:40;14.82;;;8.68;;
44204;SDS011;30163;42.698;23.344;2023-05-10T06:10:10;14.90;;;7.82;;
44204;SDS011;30163;42.698;23.344;2023-05-10T06:12:38;12.65;;;7.57;;
44204;SDS011;30163;42.698;23.344;2023-05-10T06:15:06;12.95;;;8.32;;
44204;SDS011;30163;42.698;23.344;2023-05-10T06:17:35;15.13;;;7.47;;
44204;SDS011;30163;42.698;23.344;2023-05-10T06:20:01;12.60;;;7.82;;
44204;SDS011;30163;42.698;23.344;2023-05-10T06:22:32;12.63;;;6.57;;
44204;SDS011;30163;42.698;23.344;2023-05-10T06:25:03;13.57;;;6.93;;
44204;SDS011;30163;42.698;23.344;2023-05-10T06:27:32;17.73;;;7.68;;
44204;SDS011;30163;42.698;23.344;2023-05-10T06:29:58;11.48;;;6.53;;
44204;SDS011;30163;42.698;23.344;2023-05-10T06:32:28;23.65;;;7.40;;
44204;SDS011;30163;42.698;23.344;2023-05-10T06:34:59;13.30;;;7.03;;
44204;SDS011;30163;42.698;23.344;2023-05-10T06:37:33;11.45;;;6.93;;
44204;SDS011;30163;42.698;23.344;2023-05-10T06:40:04;11.70;;;7.13;;
44204;SDS011;30163;42.698;23.344;2023-05-10T06:42:30;13.55;;;6.85;;
44204;SDS011;30163;42.698;23.344;2023-05-10T06:45:00;15.88;;;7.32;;
44204;SDS011;30163;42.698;23.344;2023-05-10T06:47:27;23.13;;;9.38;;
44204;SDS011;30163;42.698;23.344;2023-05-10T06:49:57;9.32;;;5.90;;
44204;SDS011;30163;42.698;23.344;2023-05-10T06:52:23;10.82;;;7.22;;
44204;SDS011;30163;42.698;23.344;2023-05-10T06:54:54;13.00;;;6.22;;
44204;SDS011;30163;42.698;23.344;2023-05-10T06:57:25;9.52;;;5.72;;
44204;SDS011;30163;42.698;23.344;2023-05-10T06:59:53;17.85;;;7.35;;
44204;SDS011;30163;42.698;23.344;2023-05-10T07:02:25;12.55;;;7.05;;
44204;SDS011;30163;42.698;23.344;2023-05-10T07:04:56;21.67;;;7.05;;
44204;SDS011;30163;42.698;23.344;2023-05-10T07:07:26;8.38;;;6.20;;
44204;SDS011;30163;42.698;23.344;2023-05-10T07:09:54;11.02;;;6.32;;
44204;SDS011;30163;42.698;23.344;2023-05-10T07:12:25;16.30;;;6.55;;
44204;SDS011;30163;42.698;23.344;2023-05-10T07:14:52;7.72;;;5.70;;
44204;SDS011;30163;42.698;23.344;2023-05-10T07:17:20;10.38;;;7.13;;
44204;SDS011;30163;42.698;23.344;2023-05-10T07:19:51;12.95;;;7.32;;
44204;SDS011;30163;42.698;23.344;2023-05-10T07:22:16;13.02;;;6.10;;
44204;SDS011;30163;42.698;23.344;2023-05-10T07:24:45;9.40;;;6.35;;
44204;SDS011;30163;42.698;23.344;2023-05-10T07:27:11;13.05;;;6.93;;
44204;SDS011;30163;42.698;23.344;2023-05-10T07:29:42;11.18;;;6.78;;
44204;SDS011;30163;42.698;23.344;2023-05-10T07:32:10;15.15;;;7.28;;
44204;SDS011;30163;42.698;23.344;2023-05-10T07:34:35;9.98;;;6.22;;
44204;SDS011;30163;42.698;23.344;2023-05-10T07:37:01;14.68;;;5.55;;
44204;SDS011;30163;42.698;23.344;2023-05-10T07:39:31;11.93;;;6.82;;
44204;SDS011;30163;42.698;23.344;2023-05-10T07:41:56;11.82;;;5.82;;
44204;SDS011;30163;42.698;23.344;2023-05-10T07:44:22;11.35;;;6.90;;
44204;SDS011;30163;42.698;23.344;2023-05-10T07:46:48;24.02;;;9.35;;
44204;SDS011;30163;42.698;23.344;2023-05-10T07:49:21;11.38;;;7.05;;
44204;SDS011;30163;42.698;23.344;2023-05-10T07:51:49;18.27;;;8.18;;
44204;SDS011;30163;42.698;23.344;2023-05-10T07:54:20;13.75;;;7.68;;
44204;SDS011;30163;42.698;23.344;2023-05-10T07:56:49;16.25;;;9.20;;
44204;SDS011;30163;42.698;23.344;2023-05-10T07:59:15;17.00;;;7.85;;
44204;SDS011;30163;42.698;23.344;2023-05-10T08:01:41;15.70;;;8.13;;
44204;SDS011;30163;42.698;23.344;2023-05-10T08:04:12;14.80;;;7.82;;
44204;SDS011;30163;42.698;23.344;2023-05-10T08:06:40;12.52;;;8.20;;
44204;SDS011;30163;42.698;23.344;2023-05-10T08:09:08;15.18;;;7.53;;
44204;SDS011;30163;42.698;23.344;2023-05-10T08:11:39;11.45;;;7.55;;
44204;SDS011;30163;42.698;23.344;2023-05-10T08:14:09;12.52;;;8.23;;
44204;SDS011;30163;42.698;23.344;2023-05-10T08:16:40;18.58;;;8.70;;
44204;SDS011;30163;42.698;23.344;2023-05-10T08:19:09;14.27;;;8.00;;
44204;SDS011;30163;42.698;23.344;2023-05-10T08:21:37;12.15;;;7.13;;
44204;SDS011;30163;42.698;23.344;2023-05-10T08:24:11;15.48;;;8.65;;
44204;SDS011;30163;42.698;23.344;2023-05-10T08:26:39;13.98;;;8.43;;
44204;SDS011;30163;42.698;23.344;2023-05-10T08:29:13;20.15;;;8.52;;
44204;SDS011;30163;42.698;23.344;2023-05-10T08:31:44;13.77;;;7.82;;
44204;SDS011;30163;42.698;23.344;2023-05-10T08:34:12;17.45;;;7.85;;
44204;SDS011;30163;42.698;23.344;2023-05-10T08:36:43;14.65;;;9.02;;
44204;SDS011;30163;42.698;23.344;2023-05-10T08:39:11;12.90;;;8.52;;
44204;SDS011;30163;42.698;23.344;2023-05-10T08:41:48;13.10;;;8.52;;
44204;SDS011;30163;42.698;23.344;2023-05-10T08:44:18;11.85;;;8.23;;
44204;SDS011;30163;42.698;23.344;2023-05-10T08:46:47;20.10;;;9.80;;
44204;SDS011;30163;42.698;23.344;2023-05-10T08:49:17;13.10;;;7.72;;
44204;SDS011;30163;42.698;23.344;2023-05-10T08:51:47;8.90;;;6.80;;
44204;SDS011;30163;42.698;23.344;2023-05-10T08:54:20;12.18;;;8.20;;
44204;SDS011;30163;42.698;23.344;2023-05-10T08:56:51;13.63;;;8.23;;
44204;SDS011;30163;42.698;23.344;2023-05-10T08:59:22;18.67;;;8.00;;
44204;SDS011;30163;42.698;23.344;2023-05-10T09:01:48;12.88;;;7.25;;
44204;SDS011;30163;42.698;23.344;2023-05-10T09:04:14;15.48;;;7.90;;
44204;SDS011;30163;42.698;23.344;2023-05-10T09:06:40;12.45;;;7.65;;
44204;SDS011;30163;42.698;23.344;2023-05-10T09:09:09;14.63;;;7.93;;
44204;SDS011;30163;42.698;23.344;2023-05-10T09:11:34;10.27;;;6.32;;
44204;SDS011;30163;42.698;23.344;2023-05-10T09:14:02;11.57;;;8.10;;
44204;SDS011;30163;42.698;23.344;2023-05-10T09:16:28;11.77;;;7.70;;
44204;SDS011;30163;42.698;23.344;2023-05-10T09:18:59;13.50;;;8.48;;
44204;SDS011;30163;42.698;23.344;2023-05-10T09:21:33;13.95;;;8.90;;
44204;SDS011;30163;42.698;23.344;2023-05-10T09:24:04;18.48;;;6.63;;
44204;SDS011;30163;42.698;23.344;2023-05-10T09:26:35;13.25;;;8.30;;
44204;SDS011;30163;42.698;23.344;2023-05-10T09:29:04;14.77;;;8.27;;
44204;SDS011;30163;42.698;23.344;2023-05-10T09:31:46;13.48;;;8.32;;
44204;SDS011;30163;42.698;23.344;2023-05-10T09:34:46;12.98;;;7.85;;
44204;SDS011;30163;42.698;23.344;2023-05-10T09:37:12;16.63;;;8.02;;
44204;SDS011;30163;42.698;23.344;2023-05-10T09:39:37;12.32;;;8.30;;
44204;SDS011;30163;42.698;23.344;2023-05-10T09:42:06;10.23;;;7.13;;
44204;SDS011;30163;42.698;23.344;2023-05-10T09:44:34;12.18;;;8.05;;
44204;SDS011;30163;42.698;23.344;2023-05-10T09:47:05;13.57;;;7.88;;
44204;SDS011;30163;42.698;23.344;2023-05-10T09:49:33;17.45;;;9.45;;
44204;SDS011;30163;42.698;23.344;2023-05-10T09:52:03;15.20;;;8.55;;
44204;SDS011;30163;42.698;23.344;2023-05-10T09:54:32;14.30;;;7.78;;
44204;SDS011;30163;42.698;23.344;2023-05-10T09:57:01;13.48;;;7.70;;
44204;SDS011;30163;42.698;23.344;2023-05-10T09:59:32;16.25;;;7.38;;
44204;SDS011;30163;42.698;23.344;2023-05-10T10:02:02;15.07;;;7.13;;
44204;SDS011;30163;42.698;23.344;2023-05-10T10:04:38;14.32;;;8.85;;
44204;SDS011;30163;42.698;23.344;2023-05-10T10:07:12;14.82;;;6.72;;
44204;SDS011;30163;42.698;23.344;2023-05-10T10:09:40;12.43;;;7.40;;
44204;SDS011;30163;42.698;23.344;2023-05-10T10:12:06;11.95;;;7.60;;
44204;SDS011;30163;42.698;23.344;2023-05-10T10:14:39;13.57;;;6.93;;
44204;SDS011;30163;42.698;23.344;2023-05-10T10:17:07;15.98;;;6.97;;
44204;SDS011;30163;42.698;23.344;2023-05-10T10:19:35;11.95;;;6.60;;
44204;SDS011;30163;42.698;23.344;2023-05-10T10:22:04;10.82;;;6.32;;
44204;SDS011;30163;42.698;23.344;2023-05-10T10:24:30;14.85;;;7.07;;
44204;SDS011;30163;42.698;23.344;2023-05-10T10:26:57;11.77;;;6.50;;
44204;SDS011;30163;42.698;23.344;2023-05-10T10:32:30;10.00;;;6.88;;
44204;SDS011;30163;42.698;23.344;2023-05-10T10:35:02;11.52;;;5.55;;
44204;SDS011;30163;42.698;23.344;2023-05-10T10:37:43;7.93;;;5.75;;
44204;SDS011;30163;42.698;23.344;2023-05-10T10:48:43;9.68;;;6.68;;
44204;SDS011;30163;42.698;23.344;2023-05-10T10:51:15;10.30;;;5.88;;
44204;SDS011;30163;42.698;23.344;2023-05-10T10:53:51;19.33;;;5.53;;
44204;SDS011;30163;42.698;23.344;2023-05-10T10:56:19;14.63;;;5.80;;
44204;SDS011;30163;42.698;23.344;2023-05-10T10:58:51;9.88;;;6.82;;
44204;SDS011;30163;42.698;23.344;2023-05-10T11:01:21;7.95;;;5.55;;
44204;SDS011;30163;42.698;23.344;2023-05-10T11:06:30;8.35;;;6.45;;
44204;SDS011;30163;42.698;23.344;2023-05-10T11:09:05;9.57;;;6.10;;
44204;SDS011;30163;42.698;23.344;2023-05-10T11:11:37;11.95;;;6.53;;
44204;SDS011;30163;42.698;23.344;2023-05-10T11:14:18;10.35;;;6.25;;
44204;SDS011;30163;42.698;23.344;2023-05-10T11:16:52;10.05;;;6.18;;
44204;SDS011;30163;42.698;23.344;2023-05-10T11:19:20;10.77;;;6.20;;
44204;SDS011;30163;42.698;23.344;2023-05-10T11:21:51;8.73;;;5.82;;
44204;SDS011;30163;42.698;23.344;2023-05-10T11:24:55;15.38;;;6.10;;
44204;SDS011;30163;42.698;23.344;2023-05-10T11:27:23;9.93;;;6.23;;
44204;SDS011;30163;42.698;23.344;2023-05-10T11:29:54;10.43;;;5.93;;
44204;SDS011;30163;42.698;23.344;2023-05-10T11:32:20;7.38;;;5.75;;
44204;SDS011;30163;42.698;23.344;2023-05-10T11:34:52;12.63;;;6.38;;
44204;SDS011;30163;42.698;23.344;2023-05-10T11:37:27;9.18;;;6.22;;
44204;SDS011;30163;42.698;23.344;2023-05-10T11:40:07;9.52;;;5.97;;
44204;SDS011;30163;42.698;23.344;2023-05-10T11:42:39;19.95;;;6.70;;
44204;SDS011;30163;42.698;23.344;2023-05-10T11:45:10;9.52;;;6.30;;
44204;SDS011;30163;42.698;23.344;2023-05-10T11:47:36;11.43;;;6.80;;
44204;SDS011;30163;42.698;23.344;2023-05-10T11:50:13;9.85;;;5.78;;
44204;SDS011;30163;42.698;23.344;2023-05-10T11:52:42;14.57;;;6.32;;
44204;SDS011;30163;42.698;23.344;2023-05-10T11:55:10;14.90;;;6.93;;
44204;SDS011;30163;42.698;23.344;2023-05-10T11:57:35;8.75;;;6.53;;
44204;SDS011;30163;42.698;23.344;2023-05-10T12:00:08;11.75;;;5.68;;
44204;SDS011;30163;42.698;23.344;2023-05-10T12:02:34;10.88;;;6.00;;
44204;SDS011;30163;42.698;23.344;2023-05-10T12:05:05;8.57;;;5.97;;
44204;SDS011;30163;42.698;23.344;2023-05-10T12:07:37;9.80;;;6.05;;
44204;SDS011;30163;42.698;23.344;2023-05-10T12:10:10;11.68;;;6.13;;
44204;SDS011;30163;42.698;23.344;2023-05-10T12:12:45;14.05;;;5.88;;
44204;SDS011;30163;42.698;23.344;2023-05-10T12:15:20;12.43;;;6.25;;
44204;SDS011;30163;42.698;23.344;2023-05-10T12:17:50;8.30;;;5.85;;
44204;SDS011;30163;42.698;23.344;2023-05-10T12:20:18;15.40;;;6.03;;
44204;SDS011;30163;42.698;23.344;2023-05-10T12:22:49;9.25;;;6.30;;
44204;SDS011;30163;42.698;23.344;2023-05-10T12:25:20;11.75;;;6.45;;
44204;SDS011;30163;42.698;23.344;2023-05-10T12:27:54;8.33;;;5.83;;
44204;SDS011;30163;42.698;23.344;2023-05-10T12:30:32;12.93;;;6.07;;
44204;SDS011;30163;42.698;23.344;2023-05-10T12:33:02;11.13;;;6.43;;
44204;SDS011;30163;42.698;23.344;2023-05-10T12:35:48;11.82;;;7.03;;
44204;SDS011;30163;42.698;23.344;2023-05-10T12:38:35;12.45;;;6.32;;
44204;SDS011;30163;42.698;23.344;2023-05-10T12:41:07;13.25;;;6.20;;
44204;SDS011;30163;42.698;23.344;2023-05-10T12:43:34;9.80;;;6.30;;
44204;SDS011;30163;42.698;23.344;2023-05-10T12:46:09;12.55;;;7.07;;
44204;SDS011;30163;42.698;23.344;2023-05-10T12:48:37;10.27;;;6.10;;
44204;SDS011;30163;42.698;23.344;2023-05-10T12:51:06;16.80;;;7.28;;
44204;SDS011;30163;42.698;23.344;2023-05-10T12:53:39;9.60;;;6.60;;
44204;SDS011;30163;42.698;23.344;2023-05-10T12:56:10;10.85;;;6.25;;
44204;SDS011;30163;42.698;23.344;2023-05-10T12:58:41;10.65;;;6.38;;
44204;SDS011;30163;42.698;23.344;2023-05-10T13:01:12;11.93;;;6.47;;
44204;SDS011;30163;42.698;23.344;2023-05-10T13:03:39;12.15;;;6.90;;
44204;SDS011;30163;42.698;23.344;2023-05-10T13:06:04;9.93;;;6.43;;
44204;SDS011;30163;42.698;23.344;2023-05-10T13:08:33;13.65;;;6.55;;
44204;SDS011;30163;42.698;23.344;2023-05-10T13:11:04;11.40;;;6.18;;
44204;SDS011;30163;42.698;23.344;2023-05-10T13:13:35;12.50;;;7.13;;
44204;SDS011;30163;42.698;23.344;2023-05-10T13:16:01;10.55;;;6.85;;
44204;SDS011;30163;42.698;23.344;2023-05-10T13:18:32;9.73;;;6.55;;
44204;SDS011;30163;42.698;23.344;2023-05-10T13:21:00;11.88;;;6.53;;
44204;SDS011;30163;42.698;23.344;2023-05-10T13:23:32;14.70;;;6.30;;
44204;SDS011;30163;42.698;23.344;2023-05-10T13:26:03;10.13;;;6.15;;
44204;SDS011;30163;42.698;23.344;2023-05-10T13:28:36;9.73;;;6.30;;
44204;SDS011;30163;42.698;23.344;2023-05-10T13:31:06;15.13;;;6.45;;
44204;SDS011;30163;42.698;23.344;2023-05-10T13:33:42;10.73;;;5.85;;
44204;SDS011;30163;42.698;23.344;2023-05-10T13:36:13;9.13;;;5.78;;
44204;SDS011;30163;42.698;23.344;2023-05-10T13:38:43;12.25;;;6.20;;
44204;SDS011;30163;42.698;23.344;2023-05-10T13:41:11;13.30;;;6.75;;
44204;SDS011;30163;42.698;23.344;2023-05-10T13:43:39;10.65;;;6.15;;
44204;SDS011;30163;42.698;23.344;2023-05-10T13:46:16;8.93;;;6.07;;
44204;SDS011;30163;42.698;23.344;2023-05-10T13:48:41;12.85;;;6.50;;
44204;SDS011;30163;42.698;23.344;2023-05-10T13:51:10;10.73;;;6.43;;
44204;SDS011;30163;42.698;23.344;2023-05-10T13:53:41;12.23;;;5.90;;
44204;SDS011;30163;42.698;23.344;2023-05-10T13:56:09;9.38;;;6.20;;
44204;SDS011;30163;42.698;23.344;2023-05-10T13:58:35;13.38;;;6.45;;
44204;SDS011;30163;42.698;23.344;2023-05-10T14:01:06;12.15;;;7.00;;
44204;SDS011;30163;42.698;23.344;2023-05-10T14:03:34;12.13;;;6.75;;
44204;SDS011;30163;42.698;23.344;2023-05-10T14:06:03;16.58;;;7.07;;
44204;SDS011;30163;42.698;23.344;2023-05-10T14:08:34;10.40;;;5.93;;
44204;SDS011;30163;42.698;23.344;2023-05-10T14:11:03;11.25;;;6.32;;
44204;SDS011;30163;42.698;23.344;2023-05-10T14:13:34;14.00;;;6.97;;
44204;SDS011;30163;42.698;23.344;2023-05-10T14:16:02;14.35;;;7.35;;
44204;SDS011;30163;42.698;23.344;2023-05-10T14:18:30;9.43;;;6.22;;
44204;SDS011;30163;42.698;23.344;2023-05-10T14:20:59;14.35;;;6.18;;
44204;SDS011;30163;42.698;23.344;2023-05-10T14:23:25;13.55;;;6.75;;
44204;SDS011;30163;42.698;23.344;2023-05-10T14:25:56;8.15;;;5.85;;
44204;SDS011;30163;42.698;23.344;2023-05-10T14:28:27;16.27;;;7.20;;
44204;SDS011;30163;42.698;23.344;2023-05-10T14:30:55;10.43;;;6.60;;
44204;SDS011;30163;42.698;23.344;2023-05-10T14:33:23;10.68;;;6.32;;
44204;SDS011;30163;42.698;23.344;2023-05-10T14:35:53;10.15;;;6.38;;
44204;SDS011;30163;42.698;23.344;2023-05-10T14:38:24;8.38;;;5.82;;
44204;SDS011;30163;42.698;23.344;2023-05-10T14:41:00;11.35;;;5.35;;
44204;SDS011;30163;42.698;23.344;2023-05-10T14:43:29;12.60;;;7.00;;
44204;SDS011;30163;42.698;23.344;2023-05-10T14:46:02;17.80;;;7.32;;
44204;SDS011;30163;42.698;23.344;2023-05-10T14:48:28;10.70;;;5.85;;
44204;SDS011;30163;42.698;23.344;2023-05-10T14:50:58;13.75;;;6.63;;
44204;SDS011;30163;42.698;23.344;2023-05-10T14:53:29;10.07;;;6.75;;
44204;SDS011;30163;42.698;23.344;2023-05-10T14:55:58;10.95;;;7.00;;
44204;SDS011;30163;42.698;23.344;2023-05-10T14:58:26;11.95;;;6.97;;
44204;SDS011;30163;42.698;23.344;2023-05-10T15:00:54;10.20;;;6.70;;
44204;SDS011;30163;42.698;23.344;2023-05-10T15:03:23;12.10;;;6.40;;